Time;durP1;ratioP1;P1;durP2;ratioP2;P2;SDS_P1;SDS_P2;PMS_P1;PMS_P2;Temp;Humidity;BMP_temperature;BMP_pressure;BME280_temperature;BME280_humidity;BME280_pressure;Samples;Min_cycle;Max_cycle;Signal;HPM_P1;HPM_P2
2021/07/07 00:02:26;;;;;;;0.40;0.40;;;24.10;57.30;;;;;;6317749;28;20032;-67
2021/07/07 00:05:27;;;;;;;0.35;0.35;;;24.10;57.20;;;;;;6317658;28;20065;-67
2021/07/07 00:08:28;;;;;;;0.60;0.50;;;24.10;57.20;;;;;;6317566;28;20031;-67
2021/07/07 00:11:28;;;;;;;0.38;0.30;;;24.10;57.30;;;;;;6317739;28;20042;-67
2021/07/07 00:14:29;;;;;;;0.30;0.30;;;24.10;57.30;;;;;;6317427;28;20492;-67
2021/07/07 00:17:29;;;;;;;0.40;0.40;;;24.10;57.30;;;;;;6317882;28;20560;-67
2021/07/07 00:24:00;;;;;;;0.32;0.30;;;24.10;57.30;;;;;;6303298;28;20115;-67
2021/07/07 00:27:01;;;;;;;0.22;0.22;;;24.10;57.30;;;;;;6339943;28;20027;-67
2021/07/07 00:30:03;;;;;;;0.63;0.40;;;24.10;57.20;;;;;;6337802;28;20028;-67
2021/07/07 00:33:04;;;;;;;0.32;0.32;;;24.10;57.30;;;;;;6317534;28;20031;-67
2021/07/07 00:36:05;;;;;;;0.30;0.30;;;24.10;57.30;;;;;;6316928;28;20020;-67
2021/07/07 00:39:06;;;;;;;0.43;0.40;;;24.20;57.30;;;;;;6317146;28;20038;-67
2021/07/07 00:42:08;;;;;;;0.30;0.30;;;24.10;57.30;;;;;;6315979;28;20157;-67
2021/07/07 00:45:09;;;;;;;0.65;0.50;;;24.10;57.90;;;;;;6320725;28;20125;-67
2021/07/07 00:48:10;;;;;;;0.50;0.40;;;24.10;57.30;;;;;;6342384;28;20020;-67
2021/07/07 00:51:12;;;;;;;0.30;0.30;;;24.10;57.30;;;;;;6340726;28;20051;-67
2021/07/07 00:54:17;;;;;;;0.40;0.40;;;24.10;57.30;;;;;;6326470;28;20052;-67
2021/07/07 00:57:19;;;;;;;0.20;0.20;;;24.10;57.30;;;;;;6316186;28;20031;-67
2021/07/07 01:00:24;;;;;;;0.40;0.30;;;24.10;57.30;;;;;;6316410;28;20031;-67
2021/07/07 01:03:25;;;;;;;0.40;0.40;;;24.10;57.90;;;;;;6316793;28;20127;-66
2021/07/07 01:06:25;;;;;;;0.32;0.30;;;24.10;57.30;;;;;;6323395;28;20028;-67
2021/07/07 01:09:26;;;;;;;0.40;0.38;;;24.10;57.30;;;;;;6316227;28;20027;-66
2021/07/07 01:12:27;;;;;;;0.40;0.40;;;24.10;57.30;;;;;;6316516;28;20028;-66
2021/07/07 01:15:27;;;;;;;0.43;0.40;;;24.10;57.30;;;;;;6316318;28;20039;-66
2021/07/07 01:18:28;;;;;;;0.50;0.40;;;24.10;57.30;;;;;;6316132;28;20024;-66
2021/07/07 01:21:28;;;;;;;0.30;0.30;;;24.10;57.30;;;;;;6315965;28;20093;-66
2021/07/07 01:24:29;;;;;;;0.30;0.30;;;24.10;57.30;;;;;;6315656;28;20066;-66
2021/07/07 01:27:30;;;;;;;0.32;0.30;;;24.10;57.30;;;;;;6329250;28;20024;-66
2021/07/07 01:30:31;;;;;;;0.22;0.22;;;24.10;57.30;;;;;;6341027;28;20767;-66
2021/07/07 01:33:32;;;;;;;0.30;0.30;;;24.10;57.30;;;;;;6319977;28;20028;-66
2021/07/07 01:36:36;;;;;;;0.30;0.30;;;24.10;57.30;;;;;;6314516;28;20028;-66
2021/07/07 01:39:38;;;;;;;0.30;0.30;;;24.10;57.30;;;;;;6316193;28;20036;-66
2021/07/07 01:42:39;;;;;;;0.30;0.30;;;24.10;58.00;;;;;;6315534;28;20090;-66
2021/07/07 01:45:41;;;;;;;0.25;0.25;;;24.10;57.30;;;;;;6315540;28;20020;-66
2021/07/07 01:48:42;;;;;;;0.40;0.40;;;24.10;57.30;;;;;;6335742;28;20102;-66
2021/07/07 01:51:42;;;;;;;0.68;0.50;;;24.10;57.30;;;;;;6337662;28;20532;-66
2021/07/07 01:54:43;;;;;;;0.45;0.30;;;24.20;57.40;;;;;;6314723;28;20508;-66
2021/07/07 01:57:46;;;;;;;0.43;0.40;;;24.10;57.30;;;;;;6314912;28;20028;-66
2021/07/07 02:00:46;;;;;;;0.47;0.40;;;24.10;57.30;;;;;;6315057;28;20024;-67
2021/07/07 02:03:47;;;;;;;0.60;0.30;;;24.10;57.30;;;;;;6314361;28;20032;-66
2021/07/07 02:06:49;;;;;;;0.30;0.30;;;24.10;57.30;;;;;;6315016;28;20031;-66
2021/07/07 02:09:49;;;;;;;1.15;0.35;;;24.10;57.30;;;;;;6314695;28;20035;-66
2021/07/07 02:12:50;;;;;;;0.30;0.30;;;24.10;57.30;;;;;;6314746;28;20103;-66
2021/07/07 02:15:51;;;;;;;0.60;0.40;;;24.10;57.30;;;;;;6314687;28;20028;-66
2021/07/07 02:18:51;;;;;;;0.20;0.20;;;24.10;57.30;;;;;;6314463;28;20111;-66
2021/07/07 02:21:52;;;;;;;0.25;0.25;;;24.10;57.30;;;;;;6314935;28;20024;-66
2021/07/07 02:24:52;;;;;;;0.40;0.40;;;24.10;57.30;;;;;;6314320;28;20036;-66
2021/07/07 02:27:54;;;;;;;0.30;0.30;;;24.10;57.40;;;;;;6250738;22;20062;-68
2021/07/07 02:30:56;;;;;;;0.30;0.22;;;24.10;57.30;;;;;;6231135;28;20543;-68
2021/07/07 02:33:57;;;;;;;0.30;0.22;;;24.10;57.30;;;;;;6241571;28;20029;-68
2021/07/07 02:36:57;;;;;;;0.40;0.40;;;24.20;57.40;;;;;;6241261;28;20060;-68
2021/07/07 02:39:58;;;;;;;0.20;0.20;;;24.10;57.30;;;;;;6241723;28;20033;-68
2021/07/07 02:42:59;;;;;;;0.57;0.30;;;24.10;57.30;;;;;;6241863;28;20017;-68
2021/07/07 02:46:00;;;;;;;0.40;0.40;;;24.10;58.00;;;;;;6241338;28;20575;-68
2021/07/07 02:49:00;;;;;;;0.38;0.38;;;24.10;57.30;;;;;;6241329;28;20026;-68
2021/07/07 02:52:01;;;;;;;0.30;0.30;;;24.10;57.30;;;;;;6241522;28;20030;-68
2021/07/07 02:55:02;;;;;;;0.60;0.50;;;24.10;57.30;;;;;;6238861;28;20064;-68
2021/07/07 02:58:05;;;;;;;0.50;0.30;;;24.10;57.40;;;;;;6241257;28;20053;-68
2021/07/07 03:01:05;;;;;;;0.40;0.40;;;24.10;57.30;;;;;;6241612;28;20026;-68
2021/07/07 03:04:06;;;;;;;0.22;0.22;;;24.10;57.30;;;;;;6240580;28;20757;-68
2021/07/07 03:07:07;;;;;;;0.40;0.40;;;24.10;57.30;;;;;;6241170;28;20068;-68
2021/07/07 03:10:09;;;;;;;0.30;0.30;;;24.10;57.30;;;;;;6236671;28;20456;-68
2021/07/07 03:13:11;;;;;;;0.40;0.30;;;24.10;57.30;;;;;;6216490;28;20634;-68
2021/07/07 03:16:12;;;;;;;0.20;0.20;;;24.10;57.30;;;;;;6238668;28;20025;-68
2021/07/07 03:19:12;;;;;;;0.30;0.30;;;24.10;57.30;;;;;;6240928;28;20467;-68
2021/07/07 03:22:13;;;;;;;0.30;0.30;;;24.10;57.30;;;;;;6240964;28;20584;-68
2021/07/07 03:25:14;;;;;;;0.28;0.28;;;24.10;57.40;;;;;;6240819;28;20033;-69
2021/07/07 03:28:16;;;;;;;0.20;0.20;;;24.10;57.30;;;;;;6240914;28;20077;-68
2021/07/07 03:31:17;;;;;;;0.22;0.22;;;24.10;57.30;;;;;;6227335;28;20022;-68
2021/07/07 03:34:17;;;;;;;0.30;0.30;;;24.10;57.30;;;;;;6218952;28;20768;-67
2021/07/07 03:37:18;;;;;;;0.75;0.30;;;24.10;57.40;;;;;;6240755;28;20025;-68
2021/07/07 03:40:19;;;;;;;0.30;0.30;;;24.10;57.30;;;;;;6240733;28;20035;-69
2021/07/07 03:43:19;;;;;;;0.30;0.30;;;24.10;57.30;;;;;;6240886;28;20030;-68
2021/07/07 03:46:20;;;;;;;0.55;0.28;;;24.10;57.40;;;;;;6240467;28;20112;-69
2021/07/07 03:49:20;;;;;;;0.28;0.28;;;24.10;57.30;;;;;;6240769;28;20488;-68
2021/07/07 03:52:21;;;;;;;0.20;0.20;;;24.10;57.40;;;;;;6240764;28;20030;-68
2021/07/07 03:55:24;;;;;;;0.17;0.17;;;24.10;57.40;;;;;;6226048;28;20080;-68
2021/07/07 03:58:24;;;;;;;0.30;0.30;;;24.10;57.40;;;;;;6240657;28;20025;-68
2021/07/07 04:01:25;;;;;;;0.43;0.30;;;24.10;57.40;;;;;;6240227;28;20045;-68
2021/07/07 04:04:25;;;;;;;0.30;0.30;;;24.10;57.40;;;;;;6239691;28;20511;-68
2021/07/07 04:07:26;;;;;;;0.40;0.20;;;24.10;57.40;;;;;;6226461;28;20026;-68
2021/07/07 04:10:26;;;;;;;0.30;0.30;;;24.10;57.40;;;;;;6239188;28;20358;-68
2021/07/07 04:13:28;;;;;;;0.30;0.30;;;24.10;57.40;;;;;;6240529;28;20026;-68
2021/07/07 04:16:29;;;;;;;0.30;0.30;;;24.10;57.40;;;;;;6241936;28;20354;-68
2021/07/07 04:19:29;;;;;;;0.32;0.30;;;24.10;57.40;;;;;;6244803;28;20029;-68
2021/07/07 04:22:30;;;;;;;0.20;0.20;;;24.10;57.40;;;;;;6244812;28;20488;-68
2021/07/07 04:25:30;;;;;;;0.35;0.35;;;24.10;57.40;;;;;;6244347;28;20508;-68
2021/07/07 04:28:31;;;;;;;0.45;0.32;;;24.10;57.40;;;;;;6244576;28;20050;-69
2021/07/07 04:31:33;;;;;;;0.40;0.40;;;24.10;58.10;;;;;;6244470;28;20615;-68
2021/07/07 04:34:34;;;;;;;0.28;0.28;;;24.10;57.40;;;;;;6244465;28;20100;-68
2021/07/07 04:37:34;;;;;;;0.30;0.30;;;24.10;57.50;;;;;;6244197;28;20043;-68
2021/07/07 04:40:36;;;;;;;0.22;0.22;;;24.20;57.50;;;;;;6235881;28;20033;-69
2021/07/07 04:43:36;;;;;;;0.30;0.30;;;24.10;57.40;;;;;;6244164;28;20028;-68
2021/07/07 04:46:37;;;;;;;1.00;0.40;;;24.10;57.40;;;;;;6244389;28;20064;-68
2021/07/07 04:49:37;;;;;;;0.20;0.20;;;24.20;57.50;;;;;;6244133;28;20659;-68
2021/07/07 04:52:39;;;;;;;0.52;0.40;;;24.20;57.50;;;;;;6241674;28;20030;-68
2021/07/07 04:55:39;;;;;;;0.32;0.30;;;24.10;57.40;;;;;;6219855;28;20018;-68
2021/07/07 04:58:42;;;;;;;0.35;0.20;;;24.10;57.40;;;;;;6244198;28;20075;-68
2021/07/07 05:01:42;;;;;;;0.40;0.30;;;24.10;57.50;;;;;;6234785;28;20053;-69
2021/07/07 05:04:44;;;;;;;0.30;0.30;;;24.10;57.40;;;;;;6219174;28;20057;-68
2021/07/07 05:07:45;;;;;;;0.40;0.30;;;24.20;57.50;;;;;;6234537;28;20087;-68
2021/07/07 05:10:46;;;;;;;0.77;0.70;;;24.10;57.40;;;;;;6233944;28;20488;-69
2021/07/07 05:13:47;;;;;;;0.40;0.30;;;24.10;57.40;;;;;;6242192;28;20086;-69
2021/07/07 05:16:47;;;;;;;0.30;0.30;;;24.10;57.40;;;;;;6243431;28;20504;-68
2021/07/07 05:19:48;;;;;;;0.30;0.30;;;24.10;57.50;;;;;;6243630;28;20056;-68
2021/07/07 05:22:48;;;;;;;0.30;0.30;;;24.10;57.40;;;;;;6243208;28;20128;-68
2021/07/07 05:25:49;;;;;;;0.40;0.40;;;24.10;57.50;;;;;;6243111;28;20683;-68
2021/07/07 05:28:49;;;;;;;0.30;0.30;;;24.20;57.60;;;;;;6242397;28;20049;-68
2021/07/07 05:31:52;;;;;;;0.60;0.35;;;24.10;57.50;;;;;;6242923;28;20025;-68
2021/07/07 05:34:54;;;;;;;0.45;0.30;;;24.10;57.50;;;;;;6243409;28;20120;-68
2021/07/07 05:37:55;;;;;;;0.22;0.22;;;24.10;57.40;;;;;;6242706;28;20033;-69
2021/07/07 05:40:55;;;;;;;0.82;0.40;;;24.10;57.50;;;;;;6195672;28;20062;-68
2021/07/07 05:43:56;;;;;;;0.25;0.25;;;24.10;57.50;;;;;;6211343;28;20018;-68
2021/07/07 05:46:56;;;;;;;0.38;0.32;;;24.10;57.50;;;;;;6202254;28;20030;-68
2021/07/07 05:49:57;;;;;;;0.40;0.40;;;24.20;57.50;;;;;;6215639;28;20108;-68
2021/07/07 05:52:58;;;;;;;0.40;0.40;;;24.10;57.50;;;;;;6211239;28;20034;-68
2021/07/07 05:55:58;;;;;;;0.40;0.35;;;24.10;57.50;;;;;;6193785;28;20533;-68
2021/07/07 05:58:59;;;;;;;0.35;0.35;;;24.10;57.50;;;;;;6191218;28;20326;-68
2021/07/07 06:01:59;;;;;;;0.88;0.40;;;24.10;57.50;;;;;;6215864;28;20390;-68
2021/07/07 06:05:00;;;;;;;0.30;0.30;;;24.10;57.50;;;;;;6202276;28;20040;-68
2021/07/07 06:08:00;;;;;;;1.48;0.38;;;24.10;57.50;;;;;;6211231;28;20057;-68
2021/07/07 06:11:01;;;;;;;0.30;0.30;;;24.10;57.50;;;;;;6194102;28;20040;-68
2021/07/07 06:14:02;;;;;;;0.22;0.20;;;24.10;57.50;;;;;;6195373;28;20084;-68
2021/07/07 06:17:02;;;;;;;0.57;0.40;;;24.10;57.50;;;;;;6199784;28;20383;-68
2021/07/07 06:20:05;;;;;;;0.57;0.40;;;24.10;57.50;;;;;;6217927;28;20038;-68
2021/07/07 06:23:06;;;;;;;0.30;0.30;;;24.10;57.50;;;;;;6217561;28;20461;-68
2021/07/07 06:26:07;;;;;;;0.30;0.30;;;24.10;57.50;;;;;;6217434;28;20049;-68
2021/07/07 06:29:07;;;;;;;0.40;0.40;;;24.10;57.50;;;;;;6217220;28;20464;-68
2021/07/07 06:32:08;;;;;;;0.55;0.45;;;24.10;57.50;;;;;;6214038;28;20026;-68
2021/07/07 06:35:09;;;;;;;0.20;0.20;;;24.10;58.20;;;;;;6202949;28;20073;-68
2021/07/07 06:38:10;;;;;;;0.30;0.30;;;24.10;57.50;;;;;;6212948;28;20028;-68
2021/07/07 06:41:10;;;;;;;0.50;0.30;;;24.20;57.50;;;;;;6211339;28;20481;-68
2021/07/07 06:44:11;;;;;;;0.30;0.30;;;24.10;57.50;;;;;;6193382;28;20034;-68
2021/07/07 06:47:12;;;;;;;0.40;0.40;;;24.10;57.50;;;;;;6198946;28;20560;-68
2021/07/07 06:50:14;;;;;;;0.35;0.30;;;24.10;57.50;;;;;;6213309;28;20029;-68
2021/07/07 06:53:15;;;;;;;0.50;0.38;;;24.10;57.50;;;;;;6208766;28;20022;-68
2021/07/07 06:56:15;;;;;;;0.70;0.50;;;24.10;57.60;;;;;;6194817;28;20467;-68
2021/07/07 06:59:16;;;;;;;0.30;0.30;;;24.20;57.60;;;;;;6212909;28;20125;-68
2021/07/07 07:02:16;;;;;;;0.30;0.30;;;24.20;57.50;;;;;;6196067;28;20033;-68
2021/07/07 07:05:19;;;;;;;0.32;0.32;;;24.20;57.50;;;;;;6191080;28;20453;-68
2021/07/07 07:08:19;;;;;;;0.60;0.32;;;24.20;57.40;;;;;;6205894;28;20496;-68
2021/07/07 07:11:20;;;;;;;0.32;0.30;;;24.30;57.60;;;;;;6208279;28;20031;-69
2021/07/07 07:14:21;;;;;;;0.40;0.30;;;24.20;57.50;;;;;;6213163;28;20311;-68
2021/07/07 07:17:23;;;;;;;0.20;0.20;;;24.20;57.50;;;;;;6204291;28;20026;-68
2021/07/07 07:20:27;;;;;;;0.68;0.40;;;24.20;57.80;;;;;;6211707;28;20057;-69
2021/07/07 07:23:28;;;;;;;0.30;0.30;;;24.20;57.70;;;;;;6215498;28;20520;-68
2021/07/07 07:26:29;;;;;;;0.70;0.45;;;24.20;58.10;;;;;;6213136;28;20046;-68
2021/07/07 07:29:29;;;;;;;4.90;1.00;;;24.10;58.70;;;;;;6211795;28;20287;-68
2021/07/07 07:32:30;;;;;;;5.97;1.08;;;24.00;58.90;;;;;;6216778;28;20053;-68
2021/07/07 07:35:30;;;;;;;2.70;1.05;;;24.00;59.20;;;;;;6203529;28;20113;-69
2021/07/07 07:38:40;;;;;;;3.90;0.88;;;24.00;59.50;;;;;;6202974;28;20065;-68
2021/07/07 07:41:41;;;;;;;4.07;1.13;;;24.00;59.60;;;;;;6216064;28;20026;-68
2021/07/07 07:44:42;;;;;;;4.97;1.35;;;23.90;59.70;;;;;;6216328;28;20121;-68
2021/07/07 07:47:43;;;;;;;5.28;1.58;;;23.90;59.80;;;;;;6214517;28;20033;-68
2021/07/07 07:50:45;;;;;;;3.88;1.52;;;23.90;60.00;;;;;;6206338;28;20218;-67
2021/07/07 07:53:46;;;;;;;5.07;1.67;;;23.90;60.00;;;;;;6197840;28;20026;-68
2021/07/07 07:56:47;;;;;;;5.13;1.90;;;23.90;60.10;;;;;;6217168;28;20376;-68
2021/07/07 07:59:47;;;;;;;10.68;2.00;;;23.90;60.20;;;;;;6220161;28;20026;-68
2021/07/07 08:02:49;;;;;;;3.45;1.58;;;23.90;60.30;;;;;;6220843;28;20057;-68
2021/07/07 08:05:49;;;;;;;3.97;1.58;;;23.80;60.40;;;;;;6220955;28;20482;-68
2021/07/07 08:08:50;;;;;;;7.30;2.20;;;23.90;60.50;;;;;;6218247;28;20030;-68
2021/07/07 08:11:51;;;;;;;5.22;2.00;;;23.90;60.40;;;;;;6202464;28;20045;-69
2021/07/07 08:14:52;;;;;;;9.30;2.20;;;23.80;60.70;;;;;;6209451;28;20038;-69
2021/07/07 08:17:54;;;;;;;6.18;1.92;;;23.90;61.00;;;;;;6220446;28;20355;-69
2021/07/07 08:20:55;;;;;;;6.80;1.48;;;24.00;60.70;;;;;;6220590;28;20044;-69
2021/07/07 08:23:55;;;;;;;9.95;1.70;;;24.00;60.90;;;;;;6219095;28;20034;-69
2021/07/07 08:26:58;;;;;;;6.97;1.83;;;24.10;60.90;;;;;;6213347;28;20517;-69
2021/07/07 08:29:59;;;;;;;4.63;1.90;;;24.00;60.20;;;;;;6220033;28;20410;-69
2021/07/07 08:32:59;;;;;;;5.35;1.92;;;24.00;60.90;;;;;;6220208;28;20026;-69
2021/07/07 08:36:00;;;;;;;8.45;2.30;;;24.00;61.10;;;;;;6220661;28;20113;-69
2021/07/07 08:39:01;;;;;;;10.85;1.88;;;23.90;61.40;;;;;;6235118;28;20172;-69
2021/07/07 08:42:01;;;;;;;6.85;2.30;;;23.90;61.60;;;;;;6205800;28;20378;-69
2021/07/07 08:45:08;;;;;;;7.38;2.20;;;23.90;61.60;;;;;;6210734;28;20040;-68
2021/07/07 08:48:08;;;;;;;9.05;2.15;;;23.80;61.80;;;;;;6219984;28;20036;-69
2021/07/07 08:51:09;;;;;;;4.57;1.90;;;23.80;61.60;;;;;;6219470;28;20022;-69
2021/07/07 08:54:11;;;;;;;6.85;2.17;;;23.80;61.80;;;;;;6212899;28;20496;-69
2021/07/07 08:57:11;;;;;;;7.07;2.28;;;23.80;61.60;;;;;;6210083;28;20042;-70
2021/07/07 09:00:15;;;;;;;6.47;2.50;;;23.80;61.80;;;;;;6210109;28;20299;-69
2021/07/07 09:03:17;;;;;;;5.93;2.10;;;23.90;62.40;;;;;;6216484;28;20370;-69
2021/07/07 09:06:19;;;;;;;7.43;1.67;;;23.80;61.90;;;;;;6211331;28;20030;-69
2021/07/07 09:09:37;;;;;;;11.02;2.00;;;23.80;61.80;;;;;;6194537;28;20764;-69
2021/07/07 09:12:38;;;;;;;7.78;2.10;;;23.80;61.80;;;;;;6209643;28;20026;-68
2021/07/07 09:15:39;;;;;;;7.07;2.25;;;23.90;62.20;;;;;;6200360;28;20038;-68
2021/07/07 09:18:40;;;;;;;4.90;2.17;;;23.90;61.40;;;;;;6218789;28;20489;-69
2021/07/07 09:21:50;;;;;;;4.90;1.70;;;24.00;61.30;;;;;;6220348;28;20034;-69
2021/07/07 09:25:01;;;;;;;7.70;1.98;;;24.00;61.40;;;;;;6219797;28;20080;-69
2021/07/07 09:28:18;;;;;;;5.32;1.60;;;24.00;61.30;;;;;;6220110;28;20049;-69
2021/07/07 09:31:34;;;;;;;6.75;2.25;;;24.00;61.00;;;;;;6220051;28;20018;-69
2021/07/07 09:34:37;;;;;;;4.30;1.60;;;24.00;60.90;;;;;;6219945;28;20026;-69
2021/07/07 09:37:46;;;;;;;6.13;2.05;;;24.00;60.80;;;;;;6220098;28;20056;-69
2021/07/07 09:40:47;;;;;;;4.78;1.52;;;24.00;60.70;;;;;;6220366;28;20104;-69
2021/07/07 09:43:52;;;;;;;4.50;1.80;;;24.00;60.50;;;;;;6219377;28;20030;-69
2021/07/07 09:46:53;;;;;;;5.57;1.92;;;24.00;60.40;;;;;;6219620;28;20038;-69
2021/07/07 09:49:54;;;;;;;2.75;1.42;;;24.00;60.30;;;;;;6219852;28;20140;-69
2021/07/07 09:52:56;;;;;;;4.07;1.63;;;24.00;60.20;;;;;;6215441;28;20059;-69
2021/07/07 09:55:56;;;;;;;3.58;1.50;;;24.00;60.00;;;;;;6195415;28;20046;-69
2021/07/07 09:58:57;;;;;;;4.05;1.45;;;24.00;60.00;;;;;;6214056;28;20497;-69
2021/07/07 10:01:58;;;;;;;2.88;1.30;;;24.00;59.80;;;;;;6219400;28;20054;-69
2021/07/07 10:04:59;;;;;;;2.40;1.30;;;24.00;59.80;;;;;;6219503;28;20034;-69
2021/07/07 10:08:00;;;;;;;2.22;1.23;;;24.00;59.70;;;;;;6219548;28;20056;-69
2021/07/07 10:11:00;;;;;;;2.15;1.20;;;24.10;59.80;;;;;;6207002;28;20058;-69
2021/07/07 10:14:01;;;;;;;2.63;1.40;;;24.10;59.70;;;;;;6209416;28;20060;-69
2021/07/07 10:17:03;;;;;;;2.90;1.27;;;24.10;59.70;;;;;;6219594;28;20025;-69
2021/07/07 10:20:04;;;;;;;3.58;1.55;;;24.10;59.70;;;;;;6218849;28;20086;-68
2021/07/07 10:23:08;;;;;;;1.77;1.10;;;24.10;59.60;;;;;;6219450;28;20472;-69
2021/07/07 10:26:09;;;;;;;3.75;1.10;;;24.10;59.60;;;;;;6219139;28;20026;-68
2021/07/07 10:29:12;;;;;;;2.17;1.10;;;24.10;59.50;;;;;;6218531;28;20041;-69
2021/07/07 10:32:16;;;;;;;2.35;1.30;;;24.10;59.40;;;;;;6233648;28;20034;-69
2021/07/07 10:35:16;;;;;;;2.08;1.33;;;24.10;59.40;;;;;;6218884;28;20030;-69
2021/07/07 10:38:17;;;;;;;3.40;1.38;;;24.10;59.40;;;;;;6218345;28;20112;-69
2021/07/07 10:41:44;;;;;;;2.47;1.30;;;24.10;59.30;;;;;;6218758;28;20022;-69
2021/07/07 10:44:47;;;;;;;1.42;1.10;;;24.10;59.30;;;;;;6218477;28;20034;-68
2021/07/07 10:47:47;;;;;;;2.70;1.27;;;24.10;60.00;;;;;;6218502;28;20034;-69
2021/07/07 10:50:48;;;;;;;3.55;1.40;;;24.10;59.30;;;;;;6233615;28;20045;-69
2021/07/07 10:53:49;;;;;;;1.95;1.10;;;24.10;59.20;;;;;;6214988;28;20072;-69
2021/07/07 10:56:51;;;;;;;2.13;0.90;;;24.10;59.20;;;;;;6218933;28;20022;-68
2021/07/07 10:59:54;;;;;;;1.70;1.13;;;24.10;59.20;;;;;;6217798;28;20400;-69
2021/07/07 11:03:31;;;;;;;2.70;1.02;;;24.10;59.90;;;;;;6218522;28;20032;-69
2021/07/07 11:06:38;;;;;;;1.55;1.00;;;24.10;59.20;;;;;;6193646;28;20113;-68
2021/07/07 11:09:39;;;;;;;2.47;1.30;;;24.10;59.20;;;;;;6203765;28;20057;-69
2021/07/07 11:12:40;;;;;;;2.60;1.30;;;24.10;59.10;;;;;;6193919;28;20100;-69
2021/07/07 11:15:43;;;;;;;2.28;1.13;;;24.10;59.20;;;;;;6208288;28;20026;-69
2021/07/07 11:18:46;;;;;;;1.80;1.20;;;24.10;59.10;;;;;;6195361;28;20114;-68
2021/07/07 11:21:48;;;;;;;1.25;0.80;;;24.10;59.10;;;;;;6218448;28;20026;-68
2021/07/07 11:24:53;;;;;;;1.92;1.00;;;24.10;59.10;;;;;;6218495;28;20392;-69
2021/07/07 11:27:54;;;;;;;1.88;1.08;;;24.10;59.10;;;;;;6222936;28;20065;-69
2021/07/07 11:30:55;;;;;;;1.20;1.00;;;24.10;59.00;;;;;;6223181;28;20052;-68
2021/07/07 11:34:01;;;;;;;1.73;0.93;;;24.10;59.00;;;;;;6222910;28;20042;-69
2021/07/07 11:37:04;;;;;;;1.60;1.00;;;24.10;59.00;;;;;;6223205;28;20393;-69
2021/07/07 11:40:17;;;;;;;1.48;0.90;;;24.10;59.00;;;;;;6222779;28;20036;-69
2021/07/07 11:43:30;;;;;;;2.05;1.10;;;24.10;59.00;;;;;;6222731;28;20535;-69
2021/07/07 11:46:31;;;;;;;1.10;0.70;;;24.10;58.90;;;;;;6222795;28;20247;-69
2021/07/07 11:49:32;;;;;;;1.98;0.90;;;24.10;59.00;;;;;;6222635;28;20082;-69
2021/07/07 11:52:32;;;;;;;1.35;0.88;;;24.10;58.90;;;;;;6221597;28;20018;-69
2021/07/07 11:55:46;;;;;;;1.27;0.90;;;24.10;58.90;;;;;;6187758;28;20339;-69
2021/07/07 11:58:49;;;;;;;1.52;0.90;;;24.10;58.90;;;;;;6191316;28;20030;-69
2021/07/07 12:01:59;;;;;;;1.67;1.02;;;24.10;58.90;;;;;;6204697;28;20034;-68
2021/07/07 12:05:04;;;;;;;0.98;0.77;;;24.10;58.80;;;;;;6195369;28;20117;-68
2021/07/07 12:08:20;;;;;;;1.92;0.95;;;24.10;58.90;;;;;;6195602;28;20041;-69
2021/07/07 12:11:23;;;;;;;1.77;1.00;;;24.10;58.90;;;;;;6198882;28;20030;-69
2021/07/07 12:14:26;;;;;;;2.03;0.77;;;24.10;58.90;;;;;;6208799;28;20030;-68
2021/07/07 12:17:26;;;;;;;1.13;0.90;;;24.10;58.80;;;;;;6219705;28;20030;-69
2021/07/07 12:20:32;;;;;;;1.27;0.80;;;24.10;58.80;;;;;;6202026;28;20049;-68
2021/07/07 12:23:47;;;;;;;1.08;0.82;;;24.10;58.80;;;;;;6212766;28;20033;-69
2021/07/07 12:27:00;;;;;;;0.63;0.60;;;24.10;58.80;;;;;;6207002;28;20152;-69
2021/07/07 12:30:01;;;;;;;3.25;0.70;;;24.10;58.80;;;;;;6196077;28;20068;-69
2021/07/07 12:33:02;;;;;;;0.70;0.70;;;24.10;58.80;;;;;;6218538;28;20029;-69
2021/07/07 12:36:05;;;;;;;0.80;0.73;;;24.10;58.80;;;;;;6201637;28;20030;-69
2021/07/07 12:39:29;;;;;;;0.60;0.60;;;24.10;58.80;;;;;;6210942;28;20110;-69
2021/07/07 12:42:38;;;;;;;1.38;0.80;;;24.10;58.80;;;;;;6212518;28;20034;-68
2021/07/07 12:45:39;;;;;;;0.93;0.85;;;24.10;58.70;;;;;;6200142;28;20042;-69
2021/07/07 12:48:54;;;;;;;0.75;0.60;;;24.10;58.80;;;;;;6213887;28;20058;-69
2021/07/07 12:51:54;;;;;;;0.88;0.75;;;24.10;58.70;;;;;;6193224;28;20033;-69
2021/07/07 12:55:01;;;;;;;1.35;0.95;;;24.10;58.70;;;;;;6198317;28;20026;-69
2021/07/07 12:58:10;;;;;;;1.45;0.80;;;24.10;58.70;;;;;;6214108;28;20128;-69
2021/07/07 13:01:26;;;;;;;1.35;0.80;;;24.10;58.70;;;;;;6200772;28;20509;-69
2021/07/07 13:04:27;;;;;;;1.17;0.85;;;24.10;58.70;;;;;;6194476;28;20033;-69
2021/07/07 13:07:27;;;;;;;0.85;0.68;;;24.10;58.70;;;;;;6206510;28;20030;-68
2021/07/07 13:10:48;;;;;;;1.02;0.73;;;24.10;58.70;;;;;;6205412;28;20498;-69
2021/07/07 13:13:52;;;;;;;0.70;0.52;;;24.10;58.70;;;;;;6215807;28;20069;-69
2021/07/07 13:16:53;;;;;;;1.13;0.70;;;24.10;58.70;;;;;;6214308;28;20034;-69
2021/07/07 13:19:58;;;;;;;2.63;0.98;;;24.10;58.70;;;;;;6210557;28;20058;-68
2021/07/07 13:23:03;;;;;;;1.27;0.90;;;24.10;58.70;;;;;;6209287;28;20302;-68
2021/07/07 13:26:24;;;;;;;2.83;0.93;;;24.10;58.70;;;;;;6200226;28;20038;-69
2021/07/07 13:29:35;;;;;;;1.10;0.65;;;24.10;58.70;;;;;;6206685;28;20141;-69
2021/07/07 13:32:36;;;;;;;1.40;0.88;;;24.10;58.70;;;;;;6203730;28;20116;-69
2021/07/07 13:35:36;;;;;;;1.52;0.75;;;24.10;58.70;;;;;;6194854;28;20026;-69
2021/07/07 13:38:37;;;;;;;1.65;0.80;;;24.10;58.70;;;;;;6206362;28;20034;-69
2021/07/07 13:41:38;;;;;;;2.15;1.05;;;24.10;58.70;;;;;;6199541;28;20030;-69
2021/07/07 13:44:39;;;;;;;4.95;1.50;;;24.00;59.10;;;;;;6200945;28;20029;-69
2021/07/07 13:47:40;;;;;;;3.05;0.93;;;24.00;59.20;;;;;;6200730;28;20026;-69
2021/07/07 13:50:41;;;;;;;5.45;1.33;;;24.00;59.00;;;;;;6202424;28;20058;-69
2021/07/07 13:53:41;;;;;;;1.98;1.08;;;24.00;59.00;;;;;;6199447;28;20038;-69
2021/07/07 13:56:42;;;;;;;2.25;1.00;;;24.00;59.10;;;;;;6193247;28;20113;-69
2021/07/07 13:59:43;;;;;;;1.88;0.80;;;24.00;59.00;;;;;;6215081;28;20034;-68
2021/07/07 14:02:44;;;;;;;1.92;1.13;;;24.00;59.00;;;;;;6198093;28;20026;-69
2021/07/07 14:05:45;;;;;;;7.32;1.00;;;24.00;58.90;;;;;;6192213;28;20034;-69
2021/07/07 14:08:45;;;;;;;2.60;1.08;;;24.00;59.00;;;;;;6207138;28;20053;-68
2021/07/07 14:11:46;;;;;;;2.30;0.90;;;24.00;59.20;;;;;;6199612;28;20499;-68
2021/07/07 14:14:47;;;;;;;2.17;1.20;;;24.00;59.20;;;;;;6213154;28;20168;-69
2021/07/07 14:17:47;;;;;;;2.97;1.20;;;24.00;59.20;;;;;;6192125;28;20026;-68
2021/07/07 14:20:48;;;;;;;3.22;0.98;;;24.00;59.50;;;;;;6224611;28;20104;-69
2021/07/07 14:23:49;;;;;;;4.60;1.20;;;24.00;59.70;;;;;;6212335;28;20472;-69
2021/07/07 14:26:49;;;;;;;2.50;1.17;;;23.90;59.60;;;;;;6190543;28;20054;-69
2021/07/07 14:29:50;;;;;;;4.60;0.90;;;23.90;59.80;;;;;;6212641;28;20046;-68
2021/07/07 14:32:51;;;;;;;2.33;1.02;;;23.90;59.70;;;;;;6196520;28;20018;-69
2021/07/07 14:35:51;;;;;;;1.85;0.98;;;23.90;59.30;;;;;;6210308;28;20030;-69
2021/07/07 14:38:52;;;;;;;4.85;0.98;;;24.00;59.30;;;;;;6198654;28;20481;-69
2021/07/07 14:41:52;;;;;;;4.50;1.33;;;23.90;59.20;;;;;;6192862;28;20027;-69
2021/07/07 14:44:53;;;;;;;2.22;0.98;;;23.90;59.10;;;;;;6210358;28;20496;-69
2021/07/07 14:47:53;;;;;;;1.80;1.02;;;23.90;59.80;;;;;;6196171;28;20033;-69
2021/07/07 14:50:54;;;;;;;4.32;0.98;;;23.90;59.90;;;;;;6201761;28;20469;-69
2021/07/07 14:53:55;;;;;;;2.58;1.00;;;23.90;59.50;;;;;;6201537;28;20446;-69
2021/07/07 14:56:55;;;;;;;2.22;1.05;;;23.90;59.70;;;;;;6200218;28;20048;-69
2021/07/07 14:59:56;;;;;;;2.00;1.08;;;23.90;60.00;;;;;;6208144;28;20081;-69
2021/07/07 15:02:56;;;;;;;2.40;1.13;;;23.90;60.00;;;;;;6196991;28;20034;-69
2021/07/07 15:05:57;;;;;;;1.25;1.08;;;23.90;60.00;;;;;;6193472;28;20081;-69
2021/07/07 15:08:58;;;;;;;2.00;0.90;;;23.90;59.60;;;;;;6197091;28;20523;-69
2021/07/07 15:11:58;;;;;;;1.27;0.70;;;24.00;59.50;;;;;;6209022;28;20361;-69
2021/07/07 15:14:59;;;;;;;2.00;0.98;;;24.00;59.40;;;;;;6203977;28;20022;-69
2021/07/07 15:17:59;;;;;;;1.58;0.80;;;24.00;59.30;;;;;;6194430;28;20043;-70
2021/07/07 15:21:00;;;;;;;1.88;0.90;;;24.00;59.20;;;;;;6211667;28;20076;-69
2021/07/07 15:24:01;;;;;;;1.92;0.77;;;24.00;59.20;;;;;;6196514;28;20026;-68
2021/07/07 15:27:03;;;;;;;0.70;0.60;;;24.00;59.10;;;;;;6209668;28;20129;-69
2021/07/07 15:30:05;;;;;;;3.25;0.80;;;24.00;59.10;;;;;;6201337;28;20056;-69
2021/07/07 15:33:06;;;;;;;2.25;0.80;;;24.00;59.00;;;;;;6202663;28;20138;-69
2021/07/07 15:36:07;;;;;;;0.80;0.70;;;24.00;59.00;;;;;;6209658;28;20077;-69
2021/07/07 15:39:07;;;;;;;1.25;0.70;;;24.00;58.90;;;;;;6196118;28;20401;-69
2021/07/07 15:42:15;;;;;;;1.48;0.82;;;24.00;58.90;;;;;;6198662;28;20031;-69
2021/07/07 15:45:17;;;;;;;3.28;0.90;;;24.00;58.90;;;;;;6190898;28;20465;-69
2021/07/07 15:48:18;;;;;;;1.15;0.75;;;24.00;58.80;;;;;;6190437;28;20489;-69
2021/07/07 15:51:18;;;;;;;1.52;1.00;;;24.00;58.80;;;;;;6202666;28;20014;-69